Time;durP1;ratioP1;P1;durP2;ratioP2;P2;SDS_P1;SDS_P2;PMS_P1;PMS_P2;Temp;Humidity;BMP_temperature;BMP_pressure;BME280_temperature;BME280_humidity;BME280_pressure;Samples;Min_cycle;Max_cycle;Signal;HPM_P1;HPM_P2
2023/07/03 00:00:21;;;;;;;13.63;5.47;;;17.80;98.00;;;;;;4992458;28;20542;-70
2023/07/03 00:02:52;;;;;;;15.43;4.47;;;17.70;98.00;;;;;;4992483;28;20522;-71
2023/07/03 00:05:20;;;;;;;13.13;5.83;;;17.60;98.00;;;;;;4992398;28;20464;-71
2023/07/03 00:07:52;;;;;;;12.53;5.60;;;17.70;98.00;;;;;;4992655;28;20460;-71
2023/07/03 00:10:21;;;;;;;14.13;5.63;;;17.70;98.00;;;;;;4992289;28;20515;-70
2023/07/03 00:12:48;;;;;;;13.00;5.67;;;17.70;98.00;;;;;;4992867;28;20943;-70
2023/07/03 00:15:16;;;;;;;9.80;5.10;;;17.60;98.00;;;;;;4992308;28;21005;-72
2023/07/03 00:17:44;;;;;;;17.93;5.90;;;17.50;98.00;;;;;;4992473;28;20514;-72
2023/07/03 00:20:14;;;;;;;10.43;4.77;;;17.60;98.00;;;;;;4992197;28;20462;-71
2023/07/03 00:22:42;;;;;;;16.13;5.37;;;17.60;98.00;;;;;;4992564;28;20452;-71
2023/07/03 00:25:10;;;;;;;14.47;6.20;;;17.50;98.00;;;;;;4992135;28;20479;-70
2023/07/03 00:27:37;;;;;;;12.67;5.43;;;17.40;98.00;;;;;;4992092;28;20464;-72
2023/07/03 00:30:05;;;;;;;21.47;6.37;;;17.30;98.00;;;;;;4992110;28;20923;-70
2023/07/03 00:32:32;;;;;;;12.20;5.13;;;17.20;98.00;;;;;;4992216;28;20460;-71
2023/07/03 00:34:59;;;;;;;13.60;5.50;;;17.00;98.00;;;;;;4991967;28;20448;-70
2023/07/03 00:37:28;;;;;;;12.10;4.70;;;17.00;98.00;;;;;;4992195;28;20810;-71
2023/07/03 00:39:55;;;;;;;9.37;4.33;;;17.00;98.00;;;;;;4991948;28;20985;-71
2023/07/03 00:42:24;;;;;;;11.97;4.80;;;17.00;98.00;;;;;;4992086;28;21005;-71
2023/07/03 00:44:51;;;;;;;16.83;5.83;;;17.00;98.00;;;;;;4992053;28;20551;-71
2023/07/03 00:47:19;;;;;;;10.93;4.80;;;16.90;98.00;;;;;;4992045;28;20881;-72
2023/07/03 00:49:46;;;;;;;12.10;4.63;;;17.00;98.00;;;;;;4992040;28;20464;-71
2023/07/03 00:52:14;;;;;;;12.43;4.80;;;17.10;98.00;;;;;;4995483;28;20849;-70
2023/07/03 00:54:43;;;;;;;10.90;5.07;;;17.20;98.00;;;;;;4995756;28;20456;-70
2023/07/03 00:57:13;;;;;;;15.70;5.80;;;17.30;98.00;;;;;;4995572;28;20476;-70
2023/07/03 00:59:40;;;;;;;15.10;5.40;;;17.40;98.00;;;;;;4995516;28;21310;-70
2023/07/03 01:02:15;;;;;;;13.50;6.00;;;17.30;98.00;;;;;;4995639;28;20468;-71
2023/07/03 01:04:49;;;;;;;20.90;5.83;;;17.40;98.00;;;;;;4995948;28;20867;-69
2023/07/03 01:07:19;;;;;;;16.87;5.70;;;17.40;98.00;;;;;;4995400;28;20453;-71
2023/07/03 01:09:55;;;;;;;14.57;5.70;;;17.40;98.00;;;;;;4995440;28;20456;-69
2023/07/03 01:12:25;;;;;;;12.20;5.77;;;17.30;98.00;;;;;;4994895;28;20487;-71
2023/07/03 01:14:56;;;;;;;10.17;5.00;;;17.10;98.00;;;;;;4995173;28;20471;-71
2023/07/03 01:17:25;;;;;;;13.80;5.00;;;17.20;98.00;;;;;;4993635;28;20461;-71
2023/07/03 01:19:53;;;;;;;13.73;4.90;;;17.30;98.00;;;;;;4994775;28;20468;-69
2023/07/03 01:22:25;;;;;;;12.33;4.80;;;17.40;98.00;;;;;;4994669;28;20487;-70
2023/07/03 01:24:57;;;;;;;9.73;4.70;;;17.30;98.00;;;;;;4993582;28;20464;-70
2023/07/03 01:27:27;;;;;;;16.33;5.03;;;17.40;98.00;;;;;;4994801;28;20468;-71
2023/07/03 01:29:55;;;;;;;14.20;5.17;;;17.40;98.00;;;;;;4994703;28;20457;-71
2023/07/03 01:32:27;;;;;;;13.87;6.00;;;17.40;98.00;;;;;;4994884;28;20492;-71
2023/07/03 01:34:55;;;;;;;14.03;5.77;;;17.40;98.00;;;;;;4994625;28;20511;-70
2023/07/03 01:37:26;;;;;;;12.37;5.07;;;17.40;98.00;;;;;;4994560;28;20452;-70
2023/07/03 01:39:56;;;;;;;15.80;5.30;;;17.40;98.00;;;;;;4994550;28;20507;-70
2023/07/03 01:42:25;;;;;;;14.47;5.30;;;17.30;98.00;;;;;;4994619;28;20543;-70
2023/07/03 01:44:54;;;;;;;9.90;4.83;;;17.30;98.00;;;;;;4994131;28;20543;-71
2023/07/03 01:47:22;;;;;;;18.27;5.70;;;17.20;98.00;;;;;;4993247;28;20464;-70
2023/07/03 01:49:49;;;;;;;11.57;5.60;;;17.20;98.00;;;;;;4993876;28;20456;-70
2023/07/03 01:52:20;;;;;;;11.10;5.53;;;17.30;98.00;;;;;;4994501;28;20998;-71
2023/07/03 01:54:56;;;;;;;13.23;5.60;;;17.40;98.00;;;;;;4994536;28;20457;-72
2023/07/03 01:57:39;;;;;;;13.70;5.90;;;17.50;98.00;;;;;;4993415;28;20838;-70
2023/07/03 02:00:12;;;;;;;18.97;6.00;;;17.60;98.00;;;;;;4994727;28;20511;-71
2023/07/03 02:02:43;;;;;;;9.90;4.87;;;17.40;98.00;;;;;;4993243;28;20970;-71
2023/07/03 02:05:13;;;;;;;12.97;5.40;;;17.50;98.00;;;;;;4994129;28;21016;-69
2023/07/03 02:07:42;;;;;;;14.93;5.53;;;17.60;98.00;;;;;;4994131;28;20460;-71
2023/07/03 02:10:10;;;;;;;16.23;6.20;;;17.70;98.00;;;;;;4994000;28;20882;-71
2023/07/03 02:12:41;;;;;;;16.83;6.20;;;17.70;98.00;;;;;;4994151;28;20982;-71
2023/07/03 02:15:10;;;;;;;12.17;5.47;;;17.70;98.00;;;;;;4994129;28;20489;-71
2023/07/03 02:17:37;;;;;;;15.17;5.80;;;17.70;98.00;;;;;;4994051;28;20496;-70
2023/07/03 02:20:05;;;;;;;14.23;5.47;;;17.70;98.00;;;;;;4994035;28;20452;-71
2023/07/03 02:22:32;;;;;;;13.87;5.40;;;17.80;98.00;;;;;;4993783;28;20487;-71
2023/07/03 02:24:59;;;;;;;14.57;5.37;;;17.70;98.00;;;;;;4994125;28;20892;-72
2023/07/03 02:27:27;;;;;;;14.73;6.60;;;17.70;98.00;;;;;;4994066;28;20469;-70
2023/07/03 02:29:55;;;;;;;14.87;6.27;;;17.60;98.00;;;;;;4993653;28;20464;-71
2023/07/03 02:32:22;;;;;;;21.43;6.00;;;17.80;98.00;;;;;;4993630;28;20484;-71
2023/07/03 02:34:49;;;;;;;14.10;5.20;;;17.80;98.00;;;;;;4993866;28;20460;-71
2023/07/03 02:37:18;;;;;;;13.93;5.40;;;17.70;98.00;;;;;;4993607;28;20519;-70
2023/07/03 02:39:45;;;;;;;10.90;5.00;;;17.80;98.00;;;;;;4993535;28;20463;-71
2023/07/03 02:42:12;;;;;;;11.23;4.93;;;17.80;98.00;;;;;;4993457;28;20963;-70
2023/07/03 02:44:39;;;;;;;10.67;4.67;;;17.80;98.00;;;;;;4993491;28;20849;-71
2023/07/03 02:47:08;;;;;;;12.23;5.60;;;17.80;98.00;;;;;;4992294;28;20464;-70
2023/07/03 02:49:36;;;;;;;12.50;5.93;;;18.00;98.00;;;;;;4993237;28;20461;-70
2023/07/03 02:52:03;;;;;;;11.63;5.23;;;17.90;98.00;;;;;;4992186;28;20484;-71
2023/07/03 02:54:30;;;;;;;10.40;5.03;;;17.90;98.00;;;;;;4992230;28;20457;-71
2023/07/03 02:56:57;;;;;;;12.33;5.30;;;17.90;98.00;;;;;;4993298;28;20485;-71
2023/07/03 02:59:24;;;;;;;14.23;5.97;;;17.90;98.00;;;;;;4991804;28;20527;-71
2023/07/03 03:01:51;;;;;;;12.53;5.67;;;18.00;98.00;;;;;;4993015;28;20464;-71
2023/07/03 03:04:20;;;;;;;15.60;5.40;;;17.90;98.00;;;;;;4992846;28;20519;-71
2023/07/03 03:06:49;;;;;;;15.37;5.20;;;17.80;98.00;;;;;;4993016;28;20453;-70
2023/07/03 03:09:16;;;;;;;13.93;5.50;;;17.70;98.00;;;;;;4992842;28;20882;-71
2023/07/03 03:11:43;;;;;;;13.17;5.70;;;17.70;98.00;;;;;;4991713;28;20612;-71
2023/07/03 03:14:10;;;;;;;12.30;5.37;;;17.60;98.00;;;;;;4992528;28;20456;-70
2023/07/03 03:16:37;;;;;;;11.90;5.63;;;17.50;98.00;;;;;;4992738;28;20456;-71
2023/07/03 03:19:04;;;;;;;10.23;4.60;;;17.50;98.00;;;;;;4992934;28;20475;-70
2023/07/03 03:21:32;;;;;;;12.00;5.00;;;17.50;98.00;;;;;;4992816;28;20511;-70
2023/07/03 03:24:00;;;;;;;20.27;5.80;;;17.50;98.00;;;;;;4992967;28;20460;-71
2023/07/03 03:26:27;;;;;;;12.33;5.10;;;17.50;98.00;;;;;;4975655;28;20488;-71
2023/07/03 03:28:54;;;;;;;11.80;5.33;;;17.50;98.00;;;;;;4993011;28;20464;-70
2023/07/03 03:31:21;;;;;;;12.67;5.83;;;17.50;98.00;;;;;;4992927;28;20789;-70
2023/07/03 03:33:48;;;;;;;9.70;5.00;;;17.70;98.00;;;;;;4992823;28;20524;-71
2023/07/03 03:36:16;;;;;;;17.20;5.90;;;17.80;98.00;;;;;;4991038;28;20456;-71
2023/07/03 03:38:44;;;;;;;13.37;5.40;;;17.80;98.00;;;;;;4993020;28;20464;-73
2023/07/03 03:41:11;;;;;;;14.70;5.37;;;17.80;98.00;;;;;;4992911;28;20502;-70
2023/07/03 03:43:38;;;;;;;12.50;5.70;;;17.90;98.00;;;;;;4992813;28;20523;-70
2023/07/03 03:46:05;;;;;;;13.57;5.33;;;17.90;98.00;;;;;;4992716;28;20803;-71
2023/07/03 03:48:32;;;;;;;13.73;6.70;;;17.90;98.00;;;;;;4992821;28;20460;-71
2023/07/03 03:51:00;;;;;;;12.93;5.23;;;17.90;98.00;;;;;;4992566;28;20459;-71
2023/07/03 03:53:28;;;;;;;13.20;5.90;;;17.90;98.00;;;;;;4992530;28;20544;-71
2023/07/03 03:55:57;;;;;;;14.10;5.67;;;18.00;98.00;;;;;;4992357;28;20465;-72
2023/07/03 03:58:24;;;;;;;12.30;5.33;;;18.00;98.00;;;;;;4992286;28;20489;-70
2023/07/03 04:00:51;;;;;;;13.97;5.07;;;18.00;98.00;;;;;;4992387;28;20452;-71
2023/07/03 04:03:19;;;;;;;13.53;5.43;;;18.10;98.00;;;;;;4992523;28;20467;-71
2023/07/03 04:05:47;;;;;;;12.10;4.50;;;18.20;98.00;;;;;;4992224;28;20460;-71
2023/07/03 04:08:15;;;;;;;11.23;5.03;;;18.20;98.00;;;;;;4990937;28;20468;-70
2023/07/03 04:10:42;;;;;;;11.13;4.50;;;18.30;98.00;;;;;;4992206;28;20467;-71
2023/07/03 04:13:11;;;;;;;11.20;5.23;;;18.30;98.00;;;;;;4992282;28;20527;-71
2023/07/03 04:15:51;;;;;;;15.87;5.50;;;18.40;98.00;;;;;;4992250;28;20459;-70
2023/07/03 04:18:19;;;;;;;19.30;4.50;;;18.50;98.00;;;;;;4992293;28;20555;-71
2023/07/03 04:20:46;;;;;;;14.30;4.73;;;18.50;98.00;;;;;;4992210;28;20557;-70
2023/07/03 04:23:13;;;;;;;12.13;4.60;;;18.60;98.00;;;;;;4992409;28;20468;-70
2023/07/03 04:25:42;;;;;;;12.60;5.20;;;18.60;98.00;;;;;;4993462;28;20463;-70
2023/07/03 04:28:09;;;;;;;11.90;4.93;;;18.60;98.00;;;;;;4996105;28;20463;-72
2023/07/03 04:30:38;;;;;;;11.00;5.50;;;18.60;98.00;;;;;;4996024;28;20534;-71
2023/07/03 04:33:05;;;;;;;12.10;5.30;;;18.70;98.00;;;;;;4996171;28;20820;-72
2023/07/03 04:35:32;;;;;;;17.43;4.73;;;18.80;98.00;;;;;;4995897;28;20456;-70
2023/07/03 04:38:01;;;;;;;11.50;4.53;;;18.70;98.00;;;;;;4996051;28;20499;-70
2023/07/03 04:40:28;;;;;;;13.30;5.40;;;18.80;98.00;;;;;;4995987;28;20939;-70
2023/07/03 04:42:58;;;;;;;11.53;4.80;;;18.80;98.00;;;;;;4995087;28;20475;-73
2023/07/03 04:45:26;;;;;;;9.87;4.97;;;18.70;98.00;;;;;;4995829;28;20471;-71
2023/07/03 04:47:54;;;;;;;11.70;5.23;;;18.70;98.00;;;;;;4995701;28;20856;-72
2023/07/03 04:50:24;;;;;;;12.43;5.17;;;18.70;98.00;;;;;;4995608;28;20452;-71
2023/07/03 04:52:52;;;;;;;10.97;5.23;;;18.80;98.00;;;;;;4995035;28;20483;-71
2023/07/03 04:55:19;;;;;;;13.53;5.40;;;18.80;98.00;;;;;;4995177;28;20460;-70
2023/07/03 04:57:47;;;;;;;12.80;5.23;;;18.80;98.00;;;;;;4995438;28;21088;-71
2023/07/03 05:00:17;;;;;;;12.17;4.80;;;18.80;98.00;;;;;;4994997;28;20475;-71
2023/07/03 05:02:44;;;;;;;12.00;5.00;;;18.90;98.00;;;;;;4994938;28;20614;-70
2023/07/03 05:05:14;;;;;;;14.17;4.90;;;19.00;98.00;;;;;;4995106;28;20460;-70
2023/07/03 05:07:42;;;;;;;13.57;5.37;;;19.10;98.00;;;;;;4995303;28;20464;-71
2023/07/03 05:10:11;;;;;;;10.73;4.90;;;19.10;98.00;;;;;;4994997;28;20464;-70
2023/07/03 05:12:38;;;;;;;15.30;5.57;;;19.10;98.00;;;;;;4995034;28;20484;-71
2023/07/03 05:15:08;;;;;;;11.03;5.00;;;19.00;98.00;;;;;;4994873;28;20492;-69
2023/07/03 05:17:38;;;;;;;13.50;5.60;;;18.90;98.00;;;;;;4995113;28;20939;-72
2023/07/03 05:20:08;;;;;;;11.67;5.20;;;18.90;98.00;;;;;;4995209;28;20820;-71
2023/07/03 05:22:38;;;;;;;12.70;5.17;;;18.90;98.00;;;;;;4995148;28;20460;-71
2023/07/03 05:25:07;;;;;;;11.47;5.03;;;19.10;98.00;;;;;;4993656;28;20471;-72
2023/07/03 05:27:34;;;;;;;15.23;5.47;;;19.10;98.00;;;;;;4995208;28;20939;-70
2023/07/03 05:30:03;;;;;;;8.97;4.97;;;19.20;98.00;;;;;;4994926;28;20492;-71
2023/07/03 05:32:30;;;;;;;15.07;6.07;;;19.30;98.00;;;;;;4995084;28;20489;-71
2023/07/03 05:34:57;;;;;;;13.70;5.30;;;19.30;98.00;;;;;;4994842;28;20861;-70
2023/07/03 05:37:24;;;;;;;17.83;4.97;;;19.30;98.00;;;;;;4994780;28;20518;-71
2023/07/03 05:39:55;;;;;;;13.47;5.10;;;19.30;98.00;;;;;;4994811;28;20459;-70
2023/07/03 05:42:23;;;;;;;9.30;3.97;;;19.40;98.00;;;;;;4994834;28;20523;-71
2023/07/03 05:44:51;;;;;;;12.63;5.20;;;19.50;98.00;;;;;;4994358;28;20457;-72
2023/07/03 05:47:18;;;;;;;15.70;4.87;;;19.60;98.00;;;;;;4994411;28;20460;-70
2023/07/03 05:49:47;;;;;;;12.53;5.07;;;19.70;98.00;;;;;;4994331;28;20456;-71
2023/07/03 05:52:15;;;;;;;13.97;4.90;;;19.80;98.00;;;;;;4994525;28;20488;-70
2023/07/03 05:54:42;;;;;;;12.50;5.23;;;19.80;98.00;;;;;;4993016;28;20453;-72
2023/07/03 05:57:12;;;;;;;15.23;4.73;;;19.70;98.00;;;;;;4994243;28;20853;-69
2023/07/03 05:59:40;;;;;;;12.33;4.87;;;19.90;98.00;;;;;;4994392;28;20950;-68
2023/07/03 06:02:10;;;;;;;11.53;4.93;;;19.90;98.00;;;;;;4994111;28;20468;-68
2023/07/03 06:04:37;;;;;;;10.10;4.93;;;19.80;98.00;;;;;;4994388;28;20470;-68
2023/07/03 06:07:05;;;;;;;10.67;4.87;;;20.00;98.00;;;;;;4994265;28;21014;-68
2023/07/03 06:09:33;;;;;;;13.50;5.00;;;20.00;98.00;;;;;;4994292;28;20515;-68
2023/07/03 06:12:00;;;;;;;10.97;5.07;;;20.00;98.00;;;;;;4993888;28;20456;-68
2023/07/03 06:14:31;;;;;;;16.30;5.50;;;19.90;98.00;;;;;;4993985;28;21012;-68
2023/07/03 06:16:58;;;;;;;11.73;4.70;;;19.90;98.00;;;;;;4993830;28;20460;-69
2023/07/03 06:19:26;;;;;;;11.83;5.23;;;20.10;98.00;;;;;;4993661;28;20452;-68
2023/07/03 06:21:54;;;;;;;11.90;5.07;;;20.00;98.00;;;;;;4993861;28;20464;-69
2023/07/03 06:24:29;;;;;;;7.10;4.20;;;20.00;98.00;;;;;;4993916;28;20464;-67
2023/07/03 06:26:58;;;;;;;13.30;5.00;;;20.10;98.00;;;;;;4992926;28;20460;-67
2023/07/03 06:29:25;;;;;;;12.07;5.10;;;20.20;98.00;;;;;;4993847;28;20500;-67
2023/07/03 06:31:53;;;;;;;13.20;4.90;;;20.20;98.00;;;;;;4994095;28;20464;-68
2023/07/03 06:34:20;;;;;;;9.60;4.57;;;20.30;98.00;;;;;;4992683;28;20497;-68
2023/07/03 06:36:47;;;;;;;10.57;4.70;;;20.40;98.00;;;;;;4993762;28;20469;-67
2023/07/03 06:39:14;;;;;;;9.87;4.33;;;20.30;98.00;;;;;;4993387;28;20962;-68
2023/07/03 06:41:41;;;;;;;8.87;4.30;;;20.20;98.00;;;;;;4993732;28;20460;-67
2023/07/03 06:44:13;;;;;;;11.00;4.70;;;20.20;98.00;;;;;;4993496;28;20464;-68
2023/07/03 06:46:40;;;;;;;10.60;4.50;;;20.30;98.00;;;;;;4993322;28;20461;-68
2023/07/03 06:49:09;;;;;;;13.70;4.37;;;20.40;98.00;;;;;;4992861;28;20464;-68
2023/07/03 06:51:37;;;;;;;10.47;4.90;;;20.40;98.00;;;;;;4993385;28;20527;-69
2023/07/03 06:54:07;;;;;;;13.13;4.87;;;20.40;98.00;;;;;;4993114;28;20484;-67
2023/07/03 06:56:34;;;;;;;14.50;4.70;;;20.30;98.00;;;;;;4993184;28;20471;-67
2023/07/03 06:59:01;;;;;;;12.50;5.10;;;20.30;98.00;;;;;;4991993;28;20479;-66
2023/07/03 07:01:29;;;;;;;9.53;4.77;;;20.30;98.00;;;;;;4993129;28;20523;-66
2023/07/03 07:03:59;;;;;;;10.23;4.70;;;20.50;98.00;;;;;;4992125;28;20503;-66
2023/07/03 07:06:30;;;;;;;9.63;4.83;;;20.60;98.00;;;;;;4993371;28;20456;-66
2023/07/03 07:08:59;;;;;;;9.90;4.83;;;20.50;98.00;;;;;;4993210;28;20563;-67
2023/07/03 07:11:28;;;;;;;13.83;5.30;;;20.60;98.00;;;;;;4993142;28;20806;-66
2023/07/03 07:13:57;;;;;;;14.47;4.57;;;20.70;98.00;;;;;;4991501;28;20546;-67
2023/07/03 07:16:30;;;;;;;11.10;5.10;;;20.80;98.00;;;;;;4993058;28;20464;-66
2023/07/03 07:19:00;;;;;;;8.60;4.10;;;20.80;98.00;;;;;;4972779;28;20520;-67
2023/07/03 07:21:30;;;;;;;10.63;4.80;;;20.90;98.00;;;;;;4973333;28;20465;-67
2023/07/03 07:23:59;;;;;;;11.60;4.70;;;20.90;98.00;;;;;;4973408;28;20461;-67
2023/07/03 07:26:33;;;;;;;11.07;4.67;;;21.00;98.00;;;;;;4973269;28;21014;-67
2023/07/03 07:29:01;;;;;;;13.87;4.90;;;21.20;98.00;;;;;;4973451;28;20489;-67
2023/07/03 07:31:29;;;;;;;10.10;4.80;;;21.10;98.00;;;;;;4956345;28;20461;-67
2023/07/03 07:34:02;;;;;;;9.87;4.20;;;21.10;98.00;;;;;;4972792;28;20580;-67
2023/07/03 07:36:30;;;;;;;9.90;4.27;;;21.00;98.00;;;;;;4972797;28;21110;-67
2023/07/03 07:39:00;;;;;;;10.87;4.63;;;21.10;98.00;;;;;;4972379;28;20834;-66
2023/07/03 07:41:29;;;;;;;8.37;4.10;;;21.10;98.00;;;;;;4972231;28;20457;-68
2023/07/03 07:43:58;;;;;;;8.50;4.20;;;21.10;98.00;;;;;;4972818;28;20582;-68
2023/07/03 07:46:28;;;;;;;11.77;4.77;;;21.30;98.00;;;;;;4972858;28;20465;-69
2023/07/03 07:48:56;;;;;;;7.90;3.87;;;21.40;98.00;;;;;;4973053;28;20457;-69
2023/07/03 07:51:24;;;;;;;11.53;4.67;;;21.40;98.00;;;;;;4972868;28;20879;-69
2023/07/03 07:54:00;;;;;;;13.17;5.20;;;21.60;98.00;;;;;;4971400;28;20485;-69
2023/07/03 07:56:27;;;;;;;8.77;4.40;;;21.60;98.00;;;;;;4972722;28;20465;-68
2023/07/03 07:58:54;;;;;;;14.53;5.33;;;21.80;98.00;;;;;;4972666;28;20508;-69
2023/07/03 08:01:22;;;;;;;9.03;4.90;;;21.80;97.50;;;;;;4976250;28;20827;-69
2023/07/03 08:03:49;;;;;;;9.30;4.37;;;21.60;96.40;;;;;;4959347;28;20465;-68
2023/07/03 08:06:17;;;;;;;10.33;4.47;;;21.70;96.30;;;;;;4976205;28;20524;-71
2023/07/03 08:08:45;;;;;;;8.63;3.77;;;21.60;96.50;;;;;;4976302;28;20524;-73
2023/07/03 08:11:14;;;;;;;8.73;4.27;;;21.60;96.30;;;;;;4976386;28;20468;-70
2023/07/03 08:13:42;;;;;;;10.27;4.70;;;21.50;96.90;;;;;;4975939;28;20935;-67
2023/07/03 08:16:11;;;;;;;12.67;4.40;;;21.40;97.10;;;;;;4975654;28;20453;-69
2023/07/03 08:18:38;;;;;;;11.10;4.20;;;21.20;97.30;;;;;;4975972;28;20464;-67
2023/07/03 08:21:05;;;;;;;11.13;4.70;;;21.20;96.50;;;;;;4974833;28;20465;-67
2023/07/03 08:23:32;;;;;;;12.00;4.70;;;21.10;98.00;;;;;;5004839;28;20451;-68
2023/07/03 08:26:01;;;;;;;10.97;4.43;;;21.00;98.00;;;;;;5014778;28;20463;-69
2023/07/03 08:28:33;;;;;;;9.33;4.53;;;21.00;98.00;;;;;;5014649;28;20502;-69
2023/07/03 08:31:00;;;;;;;8.90;4.10;;;20.80;98.00;;;;;;5014389;28;20583;-67
2023/07/03 08:33:27;;;;;;;12.53;4.70;;;20.90;98.00;;;;;;5015034;28;20545;-68
2023/07/03 08:35:54;;;;;;;9.33;4.97;;;20.90;98.00;;;;;;5015086;28;20451;-68
2023/07/03 08:38:21;;;;;;;10.97;4.93;;;20.80;98.00;;;;;;5014979;28;20803;-68
2023/07/03 08:40:56;;;;;;;10.80;4.80;;;20.80;98.00;;;;;;5015258;28;20546;-68
2023/07/03 08:43:24;;;;;;;14.00;5.17;;;20.90;98.00;;;;;;5013824;28;20486;-68
2023/07/03 08:45:52;;;;;;;9.53;4.60;;;21.00;98.00;;;;;;5013694;28;20455;-68
2023/07/03 08:48:23;;;;;;;11.40;4.53;;;21.20;98.00;;;;;;5014818;28;20949;-68
2023/07/03 08:50:55;;;;;;;10.43;4.47;;;21.30;98.00;;;;;;5014975;28;20858;-68
2023/07/03 08:53:27;;;;;;;12.50;5.30;;;21.40;98.00;;;;;;5014700;28;20490;-68
2023/07/03 08:56:00;;;;;;;10.60;4.53;;;21.60;97.80;;;;;;5015134;28;20451;-68
2023/07/03 08:58:28;;;;;;;15.40;5.03;;;21.60;98.00;;;;;;5014816;28;20973;-69
2023/07/03 09:01:08;;;;;;;10.27;4.07;;;21.70;98.00;;;;;;5014763;28;20893;-69
2023/07/03 09:03:49;;;;;;;9.30;4.60;;;21.90;97.90;;;;;;5014793;28;20550;-68
2023/07/03 09:06:23;;;;;;;12.43;5.03;;;21.90;97.20;;;;;;5014647;28;20455;-68
2023/07/03 09:09:03;;;;;;;9.10;4.73;;;22.00;97.40;;;;;;5014755;28;20459;-68
2023/07/03 09:11:35;;;;;;;11.53;4.90;;;22.00;97.30;;;;;;5014264;28;20461;-69
2023/07/03 09:14:03;;;;;;;10.67;5.27;;;22.10;98.00;;;;;;5015143;28;20997;-68
2023/07/03 09:16:32;;;;;;;15.43;5.60;;;22.10;97.80;;;;;;5013760;28;20517;-69
2023/07/03 09:19:03;;;;;;;9.37;4.70;;;21.90;97.10;;;;;;5015024;28;20448;-68
2023/07/03 09:21:31;;;;;;;17.27;5.73;;;21.70;98.00;;;;;;5014508;28;20463;-68
2023/07/03 09:24:01;;;;;;;9.50;4.53;;;21.80;98.00;;;;;;5014620;28;20466;-67
2023/07/03 09:26:35;;;;;;;11.47;5.00;;;21.90;98.00;;;;;;5014146;28;20464;-68
2023/07/03 09:29:06;;;;;;;11.40;5.40;;;22.00;97.60;;;;;;5014520;28;20857;-68
2023/07/03 09:31:34;;;;;;;15.53;5.53;;;22.10;97.10;;;;;;5014359;28;20456;-69
2023/07/03 09:34:03;;;;;;;7.47;4.10;;;22.10;97.80;;;;;;5012718;28;20495;-69
2023/07/03 09:36:35;;;;;;;15.80;4.77;;;22.10;96.20;;;;;;5014501;28;20456;-68
2023/07/03 09:39:12;;;;;;;12.27;5.87;;;21.90;97.00;;;;;;5014076;28;20460;-69
2023/07/03 09:41:40;;;;;;;8.93;4.70;;;21.70;96.60;;;;;;5013477;28;20455;-68
2023/07/03 09:44:08;;;;;;;13.00;4.70;;;21.50;97.30;;;;;;4999590;28;20460;-64
2023/07/03 09:46:38;;;;;;;17.23;4.60;;;21.40;97.60;;;;;;4993754;28;20500;-64
2023/07/03 09:49:15;;;;;;;9.57;4.37;;;21.70;98.00;;;;;;4993735;28;21037;-64
2023/07/03 09:51:42;;;;;;;12.23;5.20;;;22.10;97.00;;;;;;4993781;28;20571;-64
2023/07/03 09:54:21;;;;;;;9.80;5.00;;;22.40;95.20;;;;;;4992162;28;20488;-64
2023/07/03 09:56:49;;;;;;;14.00;4.90;;;22.70;95.00;;;;;;4993806;28;20811;-64
2023/07/03 09:59:19;;;;;;;12.80;4.73;;;23.10;94.90;;;;;;4993517;28;20500;-65
2023/07/03 10:01:49;;;;;;;14.57;5.43;;;23.40;92.60;;;;;;4993542;28;20711;-64
2023/07/03 10:04:18;;;;;;;12.37;4.83;;;23.60;92.50;;;;;;4993670;28;20448;-64
2023/07/03 10:06:57;;;;;;;14.70;4.90;;;23.90;90.80;;;;;;4993291;28;20456;-64
2023/07/03 10:09:32;;;;;;;10.23;4.77;;;24.10;90.60;;;;;;4993517;28;20657;-65
2023/07/03 10:12:08;;;;;;;11.47;5.30;;;24.10;89.70;;;;;;4993405;28;20545;-65
2023/07/03 10:14:40;;;;;;;12.30;4.63;;;24.30;90.60;;;;;;4992271;28;20572;-65
2023/07/03 10:17:12;;;;;;;18.10;5.47;;;24.50;90.00;;;;;;4993473;28;20467;-64
2023/07/03 10:19:41;;;;;;;10.07;4.40;;;24.50;89.70;;;;;;4993626;28;20551;-65
2023/07/03 10:22:10;;;;;;;14.37;5.70;;;24.20;88.20;;;;;;4993423;28;20844;-64
2023/07/03 10:24:38;;;;;;;11.43;4.53;;;24.00;88.70;;;;;;4991814;28;20492;-62
2023/07/03 10:27:06;;;;;;;12.73;4.80;;;23.70;89.30;;;;;;4993798;28;20468;-67
2023/07/03 10:29:37;;;;;;;11.53;4.43;;;23.60;90.00;;;;;;4993258;28;20464;-68
2023/07/03 10:32:11;;;;;;;14.47;4.37;;;23.40;89.50;;;;;;4992684;28;20792;-63
2023/07/03 10:34:45;;;;;;;10.43;4.60;;;23.50;90.40;;;;;;4992943;28;20542;-71
2023/07/03 10:37:17;;;;;;;14.70;4.83;;;23.60;91.20;;;;;;4994715;28;20527;-73
2023/07/03 10:39:50;;;;;;;10.70;4.47;;;23.60;90.00;;;;;;4992783;28;20511;-77
2023/07/03 10:42:22;;;;;;;12.83;4.80;;;23.80;89.10;;;;;;4992570;28;20515;-76
2023/07/03 10:44:53;;;;;;;8.43;4.13;;;23.80;86.50;;;;;;4992787;28;20453;-76
2023/07/03 10:47:29;;;;;;;11.10;4.43;;;23.80;86.60;;;;;;4992683;28;20527;-77
2023/07/03 10:49:57;;;;;;;8.00;4.17;;;24.00;87.90;;;;;;4992646;28;20518;-77
2023/07/03 10:52:32;;;;;;;9.80;5.03;;;24.20;89.30;;;;;;4992495;28;20955;-73
2023/07/03 10:55:10;;;;;;;8.20;4.23;;;24.20;86.50;;;;;;4992642;28;20514;-74
2023/07/03 10:57:47;;;;;;;10.73;4.00;;;24.20;87.10;;;;;;4992793;28;20994;-75
2023/07/03 11:00:23;;;;;;;9.20;4.07;;;24.20;87.40;;;;;;4992285;28;20479;-73
2023/07/03 11:03:00;;;;;;;8.80;4.10;;;24.20;88.00;;;;;;4992374;28;20963;-76
2023/07/03 11:05:34;;;;;;;9.30;4.10;;;24.40;86.60;;;;;;4992292;28;20460;-74
2023/07/03 11:08:09;;;;;;;11.93;4.70;;;24.80;86.60;;;;;;4992364;28;20461;-74
2023/07/03 11:10:47;;;;;;;7.80;4.30;;;25.10;85.80;;;;;;4992282;28;20452;-74
2023/07/03 11:13:19;;;;;;;7.10;4.10;;;25.30;84.00;;;;;;4992535;28;20464;-63
2023/07/03 11:15:55;;;;;;;7.93;3.83;;;25.70;84.00;;;;;;4992434;28;20491;-69
2023/07/03 11:18:39;;;;;;;8.53;4.03;;;25.90;83.40;;;;;;4992270;28;20452;-70
2023/07/03 11:21:11;;;;;;;6.87;3.80;;;25.70;80.20;;;;;;4992047;28;20543;-69
2023/07/03 11:23:48;;;;;;;6.73;3.57;;;25.50;81.90;;;;;;4992008;28;20465;-68
2023/07/03 11:26:24;;;;;;;6.80;4.03;;;25.30;82.00;;;;;;4990936;28;20971;-69
2023/07/03 11:28:54;;;;;;;7.63;3.50;;;24.90;82.50;;;;;;4992400;28;20535;-69
2023/07/03 11:31:25;;;;;;;6.77;3.30;;;24.60;82.90;;;;;;4991931;28;20464;-69
2023/07/03 11:33:54;;;;;;;12.33;3.87;;;24.60;82.40;;;;;;4991985;28;20571;-70
2023/07/03 11:36:42;;;;;;;9.00;3.57;;;24.40;82.30;;;;;;4991973;28;20479;-70
2023/07/03 11:39:19;;;;;;;6.83;2.93;;;24.30;83.50;;;;;;4991952;28;20459;-69
2023/07/03 11:41:49;;;;;;;5.43;3.30;;;24.50;84.20;;;;;;4991842;28;20542;-70
2023/07/03 11:44:29;;;;;;;5.80;2.90;;;24.70;82.50;;;;;;4991816;28;20491;-69
2023/07/03 11:46:58;;;;;;;5.63;2.87;;;24.50;83.00;;;;;;4991754;28;20456;-70
2023/07/03 11:49:31;;;;;;;4.60;3.00;;;24.50;83.80;;;;;;4992229;28;20464;-70
2023/07/03 11:52:02;;;;;;;6.90;3.33;;;24.70;84.10;;;;;;4991931;28;20799;-71
2023/07/03 11:54:32;;;;;;;7.70;3.00;;;24.60;83.70;;;;;;4991790;28;20492;-71
2023/07/03 11:57:05;;;;;;;4.87;3.00;;;25.00;83.90;;;;;;4991869;28;20502;-71
2023/07/03 11:59:38;;;;;;;7.70;3.03;;;25.40;83.50;;;;;;4991347;28;20530;-73
2023/07/03 12:02:45;;;;;;;4.60;2.93;;;25.60;82.30;;;;;;4991584;28;20471;-73
2023/07/03 12:05:53;;;;;;;5.30;2.83;;;25.40;81.90;;;;;;4991951;28;20495;-70
2023/07/03 12:08:46;;;;;;;5.17;3.17;;;25.30;82.60;;;;;;4991533;28;20459;-72
2023/07/03 12:11:15;;;;;;;7.20;3.30;;;24.80;84.30;;;;;;4968099;28;20460;-72
2023/07/03 12:13:50;;;;;;;6.77;3.30;;;24.60;85.60;;;;;;4990516;28;20464;-72
2023/07/03 12:16:21;;;;;;;9.30;3.70;;;24.30;85.70;;;;;;4991523;28;20468;-71
2023/07/03 12:19:01;;;;;;;5.50;2.97;;;24.20;85.60;;;;;;4991681;28;20456;-70
2023/07/03 12:21:48;;;;;;;6.53;3.10;;;24.20;86.50;;;;;;4991774;28;20467;-72
2023/07/03 12:24:24;;;;;;;5.67;3.00;;;24.50;85.30;;;;;;4990957;28;20994;-71
2023/07/03 12:26:55;;;;;;;5.43;3.10;;;24.60;84.40;;;;;;4991547;28;20492;-72
2023/07/03 12:29:22;;;;;;;6.93;3.10;;;24.90;86.20;;;;;;4991438;28;20523;-73
2023/07/03 12:32:05;;;;;;;10.20;3.13;;;24.80;86.10;;;;;;4991417;28;20460;-72
2023/07/03 12:34:33;;;;;;;9.07;3.40;;;24.60;86.30;;;;;;4991008;28;20527;-74
2023/07/03 12:37:05;;;;;;;8.97;3.80;;;24.40;87.50;;;;;;4991001;28;20456;-75
2023/07/03 12:39:33;;;;;;;6.30;3.10;;;24.80;87.90;;;;;;4991425;28;20495;-74
2023/07/03 12:42:08;;;;;;;6.80;3.70;;;25.50;86.50;;;;;;4991391;28;20456;-72
2023/07/03 12:44:36;;;;;;;5.23;3.20;;;26.10;84.20;;;;;;4991429;28;20482;-73
2023/07/03 12:47:12;;;;;;;6.63;3.37;;;26.70;83.60;;;;;;4993182;28;20507;-73
2023/07/03 12:49:55;;;;;;;5.60;3.10;;;27.00;81.80;;;;;;4995233;28;20837;-73
2023/07/03 12:52:25;;;;;;;6.40;3.43;;;27.10;82.50;;;;;;4995014;28;20499;-72
2023/07/03 12:54:52;;;;;;;6.83;3.70;;;27.00;82.40;;;;;;4994911;28;20579;-75